Oswegatchie, New York
Current Conditions -  °F | °C
As of 2:58 PM on Thursday 30 Oct 2014 (Local Time) from KGTB Reporting Station
Overcast Overcast  
Wind Chill: 40°   Ceiling: 2600
Heat Index: 44°   Visibility: 10mi
Dew Point: 33°   Wind: 6mph
Humidity: 67%   Direction: 260°W
Pressure: 30"   Gusts: NA
Location:  44.18°N, 75.07°W
Report Text: KGTB 301858Z AUTO 26005KT 10SM OVC026 06/01 A3000 RMK AO2 SLP164 T00640006
Loading
Personal Weather Stations






























Interactive Weather Map
Tropical Storm Tracking
New forecast layout! Learn more

10-Day Weather Forecast

Advertisements
Track Severe Weather on mobile